Beaver, UT (84713)

11:21 AM MST on February 27, 2017 (GMT -0700)
West Beaver City | | Change Station
Active Advisory: Winter Weather Advisory

Elev 5912 ft 38.28 °N, 112.65 °W | Updated 9 minutes ago

Overcast
Overcast
37.7 °F
Feels Like 27 °F
N
22.0
Wind Variable Wind from SSW
Gusts 33.0 mph

Today
High -- | Low -- °F
--% Chance of Precip.
Yesterday
High -- | Low -- °F
Precip. -- in
Pressure 29.69 in
Visibility 10.0 miles
Clouds Few 3800 ft
Mostly Cloudy 4900 ft
Overcast 6500 ft
Windchill 27 °F
Dew Point 25 °F
Humidity 60%
Rainfall 0.00 in
Snow Depth Not available.
7:04 AM 6:22 PM
New Moon, 2% visible
METAR KMLF 271752Z AUTO 22028G36KT 10SM FEW038 BKN049 OVC065 05/M03 A2970 RMK AO2 PK WND 22036/1748 SLP052 T00501028 10056 20022 51015
Pressure 29.69 in
Visibility 10.0 miles
Clouds Few 3800 ft
Mostly Cloudy 4900 ft
Overcast 6500 ft
Windchill 27 °F
Dew Point 25 °F
Humidity 60%
Rainfall 0.00 in
Snow Depth Not available.
7:04 AM 6:22 PM
New Moon, 2% visible
METAR KMLF 271752Z AUTO 22028G36KT 10SM FEW038 BKN049 OVC065 05/M03 A2970 RMK AO2 PK WND 22036/1748 SLP052 T00501028 10056 20022 51015

Get Your Daily Forecast Email!

Thanks for signing up!

Be on the lookout for a verification email in your inbox.

You'll start receiving the daily forecast at 8 AM.

×

10-Day Weather Forecast

Almanac

Astronomy

Feb. 27, 2017 Rise Set
Actual Time
Civil Twilight
Nautical Twilight
Astronomical Twilight
Moon
Length of Visible Light
Length of Day
Tomorrow will be .
, % of the Moon is Illuminated

Today's Extremes

State Highs State Lows

Community

WunderPhotos

Upload Photos

1,962,540 photos uploaded!

WunderBlog® & News

Nearby

Air Quality

  Air Quality AQ Index Pollutant
Not available.

Snow Depth

Station Depth Elevation

Earthquake Activity

City Distance Mag. Time & Date
Minimum magnitude displayed is 2.5.

Coastal Water Temperatures

Place Temperature

Stations

Nearby Weather Stations

Station Location Temp. Windchill Dew Point Humidity Wind Precip. Elev Updated Type
                   

Watches & Warnings

Winter Weather Advisory
Issued: 8:23 AM MST Feb. 27, 2017 – National Weather Service

... Winter Weather Advisory remains in effect until 4 am MST
Tuesday...

* affected area... southwest and south central Utah.

* Snow accumulations... generally 1 to 4 inches with locally
higher totals possible.

* Timing... light snow will develop this morning, becoming heavy
at times late this afternoon and overnight before diminishing.

* Snow levels... 5000-5500 feet across south central Utah.

* Impacts... winter driving conditions are expected with snow
covered roadways and poor visibility.

Precautionary/preparedness actions...

A Winter Weather Advisory for snow means that snow accumulations
will cause primarily travel difficulties. Be prepared for snow
covered roads. Use caution while driving.

For winter Road conditions from the Utah Department of
Transportation, visit
http://www.Udottraffic.Utah.Gov/roadweatherforecast.Aspx or dial
511.